createdAt,value
2022-12-31T00:01:27.021Z,3.77
2022-12-31T00:04:30.054Z,3.77
2022-12-31T00:10:41.391Z,4.13
2022-12-31T00:13:46.433Z,4.47
2022-12-31T00:16:49.444Z,3.93
2022-12-31T00:19:52.440Z,3.50
2022-12-31T00:22:56.996Z,3.67
2022-12-31T00:26:04.393Z,3.73
2022-12-31T00:29:07.506Z,3.50
2022-12-31T00:32:10.431Z,3.77
2022-12-31T00:35:13.493Z,3.40
2022-12-31T00:38:17.727Z,3.53
2022-12-31T00:41:22.915Z,4.03
2022-12-31T00:44:25.868Z,4.10
2022-12-31T00:47:28.801Z,4.00
2022-12-31T00:50:31.721Z,3.97
2022-12-31T00:53:36.179Z,3.80
2022-12-31T00:56:39.166Z,3.97
2022-12-31T00:59:42.135Z,4.33
2022-12-31T01:02:45.219Z,3.30
2022-12-31T01:05:48.289Z,3.33
2022-12-31T01:08:53.646Z,3.73
2022-12-31T01:11:56.527Z,3.20
2022-12-31T01:14:59.527Z,2.83
2022-12-31T01:18:02.710Z,3.50
2022-12-31T01:21:09.114Z,2.90
2022-12-31T01:24:14.072Z,2.90
2022-12-31T01:27:16.980Z,2.63
2022-12-31T01:30:19.926Z,3.03
2022-12-31T01:33:22.948Z,2.67
2022-12-31T01:36:27.886Z,2.60
2022-12-31T01:39:32.226Z,2.47
2022-12-31T01:42:35.167Z,2.83
2022-12-31T01:45:38.205Z,2.60
2022-12-31T01:48:41.326Z,2.70
2022-12-31T01:51:45.953Z,2.40
2022-12-31T01:54:54.922Z,3.00
2022-12-31T01:58:01.075Z,2.23
2022-12-31T02:01:04.438Z,2.73
2022-12-31T02:04:10.685Z,2.50
2022-12-31T02:07:13.980Z,2.40
2022-12-31T02:10:18.765Z,2.47
2022-12-31T02:13:21.873Z,1.97
2022-12-31T02:16:31.907Z,2.10
2022-12-31T02:19:59.607Z,2.10
2022-12-31T02:23:32.552Z,2.13
2022-12-31T02:27:02.896Z,2.00
2022-12-31T02:30:11.734Z,2.30
2022-12-31T02:33:18.224Z,2.30
2022-12-31T02:36:26.436Z,1.97
2022-12-31T02:39:31.182Z,2.23
2022-12-31T02:42:34.122Z,2.37
2022-12-31T02:45:41.122Z,2.50
2022-12-31T02:48:50.328Z,2.50
2022-12-31T02:52:02.110Z,2.90
2022-12-31T02:55:13.534Z,2.57
2022-12-31T02:58:43.717Z,2.90
2022-12-31T03:02:10.057Z,2.90
2022-12-31T03:05:15.271Z,2.50
2022-12-31T03:08:23.545Z,3.00
2022-12-31T03:11:46.370Z,2.77
2022-12-31T03:14:49.360Z,2.73
2022-12-31T03:17:56.685Z,2.60
2022-12-31T03:21:22.647Z,2.60
2022-12-31T03:24:43.183Z,2.33
2022-12-31T03:27:46.762Z,2.30
2022-12-31T03:30:53.251Z,2.60
2022-12-31T03:33:57.588Z,2.37
2022-12-31T03:37:00.513Z,2.70
2022-12-31T03:40:03.517Z,2.40
2022-12-31T03:43:06.506Z,2.37
2022-12-31T03:46:09.491Z,2.53
2022-12-31T03:49:13.835Z,2.50
2022-12-31T03:52:16.792Z,2.40
2022-12-31T03:55:20.028Z,2.50
2022-12-31T03:58:23.864Z,2.50
2022-12-31T04:01:26.836Z,2.37
2022-12-31T04:04:31.438Z,2.20
2022-12-31T04:07:34.663Z,2.30
2022-12-31T04:10:37.563Z,2.87
2022-12-31T04:13:40.491Z,2.20
2022-12-31T04:16:43.591Z,2.80
2022-12-31T04:19:47.925Z,2.37
2022-12-31T04:22:50.938Z,2.43
2022-12-31T04:25:54.935Z,2.40
2022-12-31T04:28:58.082Z,2.17
2022-12-31T04:32:01.046Z,2.10
2022-12-31T04:35:06.127Z,2.10
2022-12-31T04:38:09.093Z,2.37
2022-12-31T04:41:17.890Z,2.40
2022-12-31T04:44:20.879Z,2.30
2022-12-31T04:47:24.193Z,2.10
2022-12-31T04:50:28.565Z,2.37
2022-12-31T04:53:32.443Z,2.30
2022-12-31T04:56:36.573Z,2.50
2022-12-31T04:59:39.489Z,2.30
2022-12-31T05:02:42.619Z,2.33
2022-12-31T05:05:47.223Z,2.20
2022-12-31T05:08:51.186Z,2.13
2022-12-31T05:11:54.253Z,2.40
2022-12-31T05:14:57.144Z,2.30
2022-12-31T05:18:00.048Z,2.20
2022-12-31T05:21:04.580Z,2.03
2022-12-31T05:24:08.235Z,2.43
2022-12-31T05:27:12.386Z,2.30
2022-12-31T05:30:15.584Z,2.23
2022-12-31T05:33:18.937Z,2.10
2022-12-31T05:36:23.266Z,2.30
2022-12-31T05:39:26.235Z,2.13
2022-12-31T05:42:29.221Z,2.10
2022-12-31T05:45:32.087Z,2.40
2022-12-31T05:48:35.078Z,2.20
2022-12-31T05:51:39.595Z,2.80
2022-12-31T05:54:42.540Z,2.20
2022-12-31T05:57:45.462Z,2.33
2022-12-31T06:00:48.549Z,2.20
2022-12-31T06:03:51.563Z,2.33
2022-12-31T06:06:56.055Z,2.20
2022-12-31T06:09:58.947Z,3.17
2022-12-31T06:13:01.887Z,2.47
2022-12-31T06:16:07.568Z,2.10
2022-12-31T06:19:11.040Z,2.70
2022-12-31T06:22:15.512Z,2.13
2022-12-31T06:25:18.428Z,2.37
2022-12-31T06:28:21.412Z,2.20
2022-12-31T06:31:24.373Z,2.37
2022-12-31T06:34:27.396Z,2.23
2022-12-31T06:37:31.687Z,2.40
2022-12-31T06:40:34.598Z,2.80
2022-12-31T06:43:38.460Z,2.60
2022-12-31T06:46:41.606Z,2.10
2022-12-31T06:49:44.699Z,2.40
2022-12-31T06:52:49.075Z,1.90
2022-12-31T06:55:52.615Z,2.20
2022-12-31T06:58:56.176Z,2.23
2022-12-31T07:02:25.766Z,2.13
2022-12-31T07:05:36.691Z,2.00
2022-12-31T07:08:50.914Z,2.40
2022-12-31T07:12:03.299Z,1.97
2022-12-31T07:15:12.409Z,2.10
2022-12-31T07:18:25.054Z,2.10
2022-12-31T07:21:35.966Z,2.13
2022-12-31T07:24:41.037Z,2.43
2022-12-31T07:27:53.992Z,2.10
2022-12-31T07:31:06.142Z,1.80
2022-12-31T07:34:19.880Z,1.90
2022-12-31T07:37:32.466Z,5.20
2022-12-31T07:40:57.510Z,2.10
2022-12-31T07:44:07.628Z,1.90
2022-12-31T07:47:20.777Z,2.10
2022-12-31T07:50:24.347Z,1.90
2022-12-31T07:53:28.012Z,2.13
2022-12-31T07:56:32.700Z,1.90
2022-12-31T07:59:49.026Z,1.97
2022-12-31T08:03:14.384Z,2.07
2022-12-31T08:06:27.079Z,2.07
2022-12-31T08:09:45.165Z,2.00
2022-12-31T08:12:51.355Z,1.90
2022-12-31T08:15:54.954Z,1.87
2022-12-31T08:18:58.459Z,1.90
2022-12-31T08:22:23.683Z,2.07
2022-12-31T08:25:32.639Z,1.87
2022-12-31T08:28:57.258Z,2.00
2022-12-31T08:32:09.389Z,2.13
2022-12-31T08:35:26.887Z,1.80
2022-12-31T08:38:38.271Z,2.00
2022-12-31T08:41:43.989Z,1.80
2022-12-31T08:44:56.283Z,2.10
2022-12-31T08:48:04.172Z,2.00
2022-12-31T08:51:10.755Z,2.10
2022-12-31T08:54:14.432Z,2.07
2022-12-31T08:57:24.484Z,2.10
2022-12-31T09:00:29.929Z,2.10
2022-12-31T09:03:47.696Z,2.30
2022-12-31T09:06:57.353Z,1.97
2022-12-31T09:10:08.701Z,2.20
2022-12-31T09:13:17.989Z,2.00
2022-12-31T09:16:30.108Z,1.90
2022-12-31T09:19:33.092Z,2.00
2022-12-31T09:22:36.374Z,1.83
2022-12-31T09:25:46.504Z,2.23
2022-12-31T09:28:59.643Z,2.10
2022-12-31T09:32:13.257Z,2.20
2022-12-31T09:35:25.965Z,1.90
2022-12-31T09:38:36.345Z,2.10
2022-12-31T09:42:19.232Z,2.33
2022-12-31T09:45:58.004Z,2.10
2022-12-31T09:49:37.150Z,2.00
2022-12-31T09:52:53.284Z,1.83
2022-12-31T09:56:02.062Z,1.90
2022-12-31T09:59:13.939Z,1.90
2022-12-31T10:02:29.682Z,2.20
2022-12-31T10:05:57.964Z,1.73
2022-12-31T10:09:36.446Z,1.80
2022-12-31T10:13:03.139Z,1.83
2022-12-31T10:16:25.656Z,1.97
2022-12-31T10:19:53.056Z,2.07
2022-12-31T10:23:17.224Z,1.80
2022-12-31T10:26:29.283Z,2.17
2022-12-31T10:29:46.414Z,2.27
2022-12-31T10:33:00.530Z,1.90
2022-12-31T10:36:10.244Z,2.00
2022-12-31T10:39:24.801Z,1.90
2022-12-31T10:42:49.866Z,2.07
2022-12-31T10:46:26.803Z,2.00
2022-12-31T10:49:48.527Z,2.03
2022-12-31T10:53:19.104Z,1.80
2022-12-31T10:56:52.301Z,1.90
2022-12-31T11:00:15.043Z,1.90
2022-12-31T11:04:10.462Z,1.87
2022-12-31T11:07:42.172Z,1.70
2022-12-31T11:11:06.213Z,2.00
2022-12-31T11:14:44.097Z,1.90
2022-12-31T11:17:59.741Z,2.00
2022-12-31T11:21:28.196Z,1.90
2022-12-31T11:24:40.957Z,1.87
2022-12-31T11:28:02.613Z,2.20
2022-12-31T11:31:39.044Z,2.53
2022-12-31T11:35:30.193Z,2.00
2022-12-31T11:38:38.625Z,2.10
2022-12-31T11:41:50.496Z,2.17
2022-12-31T11:45:00.583Z,2.00
2022-12-31T11:48:30.285Z,2.00
2022-12-31T11:51:53.240Z,2.23
2022-12-31T11:55:22.784Z,2.20
2022-12-31T11:58:28.480Z,2.10
2022-12-31T12:01:37.233Z,2.40
2022-12-31T12:04:41.596Z,2.40
2022-12-31T12:07:44.700Z,2.07
2022-12-31T12:10:49.643Z,2.17
2022-12-31T12:13:52.867Z,2.30
2022-12-31T12:17:00.871Z,2.57
2022-12-31T12:20:19.633Z,2.03
2022-12-31T12:23:26.527Z,2.20
2022-12-31T12:26:34.920Z,2.10
2022-12-31T12:29:40.698Z,2.43
2022-12-31T12:32:53.474Z,2.07
2022-12-31T12:36:08.213Z,2.27
2022-12-31T12:39:21.750Z,2.50
2022-12-31T12:42:24.789Z,2.40
2022-12-31T12:45:30.432Z,2.23
2022-12-31T12:48:39.361Z,2.17
2022-12-31T12:52:01.683Z,2.17
2022-12-31T12:55:15.652Z,3.10
2022-12-31T12:58:35.325Z,2.80
2022-12-31T13:01:47.505Z,2.47
2022-12-31T13:05:11.240Z,2.07
2022-12-31T13:08:29.465Z,2.17
2022-12-31T13:11:43.937Z,2.23
2022-12-31T13:14:54.932Z,2.27
2022-12-31T13:18:10.977Z,2.33
2022-12-31T13:21:29.638Z,2.23
2022-12-31T13:24:53.506Z,2.17
2022-12-31T13:28:00.435Z,2.27
2022-12-31T13:31:07.602Z,2.50
2022-12-31T13:34:17.166Z,3.33
2022-12-31T13:37:28.343Z,2.40
2022-12-31T13:40:49.305Z,2.57
2022-12-31T13:43:58.400Z,3.10
2022-12-31T13:47:07.588Z,2.60
2022-12-31T13:50:19.979Z,2.43
2022-12-31T13:53:27.210Z,2.20
2022-12-31T13:56:37.388Z,2.73
2022-12-31T13:59:48.801Z,2.40
2022-12-31T14:03:04.290Z,2.20
2022-12-31T14:06:12.530Z,2.70
2022-12-31T14:09:21.510Z,2.50
2022-12-31T14:12:35.601Z,2.20
2022-12-31T14:15:44.185Z,2.13
2022-12-31T14:18:54.444Z,4.40
2022-12-31T14:22:05.431Z,2.63
2022-12-31T14:25:18.025Z,2.27
2022-12-31T14:28:27.182Z,2.27
2022-12-31T14:31:45.749Z,2.10
2022-12-31T14:34:57.276Z,1.90
2022-12-31T14:38:06.391Z,2.70
2022-12-31T14:41:21.357Z,2.10
2022-12-31T14:44:37.867Z,2.60
2022-12-31T14:47:51.267Z,2.50
2022-12-31T14:50:54.736Z,2.80
2022-12-31T14:53:59.092Z,2.40
2022-12-31T14:57:11.709Z,2.43
2022-12-31T15:00:32.703Z,3.00
2022-12-31T15:03:45.031Z,2.50
2022-12-31T15:06:58.721Z,2.50
2022-12-31T15:10:13.157Z,2.77
2022-12-31T15:13:26.340Z,3.03
2022-12-31T15:16:43.059Z,3.67
2022-12-31T15:20:18.829Z,4.13
2022-12-31T15:23:24.189Z,3.40
2022-12-31T15:26:31.184Z,3.30
2022-12-31T15:29:37.545Z,3.83
2022-12-31T15:32:44.231Z,3.40
2022-12-31T15:35:51.667Z,3.23
2022-12-31T15:39:24.243Z,3.03
2022-12-31T15:42:49.119Z,3.50
2022-12-31T15:45:54.048Z,4.00
2022-12-31T15:49:05.955Z,2.90
2022-12-31T15:52:18.196Z,3.43
2022-12-31T15:55:27.614Z,4.23
2022-12-31T15:58:35.682Z,4.13
2022-12-31T16:01:41.280Z,3.77
2022-12-31T16:04:45.895Z,4.40
2022-12-31T16:07:49.421Z,3.60
2022-12-31T16:10:54.509Z,5.17
2022-12-31T16:13:59.602Z,6.10
2022-12-31T16:17:02.971Z,5.80
2022-12-31T16:23:37.469Z,4.97
2022-12-31T16:26:47.461Z,5.00
2022-12-31T16:29:58.412Z,4.53
2022-12-31T16:33:03.490Z,4.77
2022-12-31T16:36:06.875Z,4.87
2022-12-31T16:39:29.552Z,4.33
2022-12-31T16:42:32.481Z,4.37
2022-12-31T16:45:38.564Z,4.80
2022-12-31T16:48:41.637Z,3.60
2022-12-31T16:51:45.292Z,5.10
2022-12-31T16:54:49.623Z,5.13
2022-12-31T16:57:55.819Z,5.70
2022-12-31T17:01:09.559Z,4.40
2022-12-31T17:04:18.415Z,3.77
2022-12-31T17:07:40.206Z,4.87
2022-12-31T17:10:46.611Z,4.90
2022-12-31T17:13:56.152Z,8.03
2022-12-31T17:17:03.801Z,6.80
2022-12-31T17:20:09.872Z,11.40
2022-12-31T17:23:23.743Z,7.53
2022-12-31T17:26:30.301Z,7.23
2022-12-31T17:29:34.453Z,9.23
2022-12-31T17:32:38.815Z,9.63
2022-12-31T17:35:43.524Z,7.67
2022-12-31T17:38:46.456Z,6.20
2022-12-31T17:41:52.357Z,7.03
2022-12-31T17:44:57.887Z,6.97
2022-12-31T17:48:00.921Z,5.37
2022-12-31T17:51:03.938Z,5.20
2022-12-31T17:54:12.979Z,6.40
2022-12-31T17:57:26.673Z,6.57
2022-12-31T18:00:29.756Z,6.53
2022-12-31T18:03:32.716Z,7.13
2022-12-31T18:06:35.649Z,6.93
2022-12-31T18:09:38.529Z,9.33
2022-12-31T18:12:43.660Z,5.73
2022-12-31T18:15:47.142Z,7.03
2022-12-31T18:18:50.755Z,6.90
2022-12-31T18:21:53.786Z,8.77
2022-12-31T18:24:56.745Z,7.60
2022-12-31T18:28:01.148Z,7.83
2022-12-31T18:31:04.465Z,6.60
2022-12-31T18:34:07.456Z,7.33
2022-12-31T18:37:19.545Z,6.70
2022-12-31T18:40:24.841Z,6.27
2022-12-31T18:43:29.137Z,7.80
2022-12-31T18:46:32.094Z,7.80
2022-12-31T18:49:34.972Z,8.07
2022-12-31T18:52:37.889Z,6.50
2022-12-31T18:55:42.425Z,6.73
2022-12-31T18:58:47.312Z,7.47
2022-12-31T19:01:50.551Z,9.40
2022-12-31T19:04:53.580Z,6.83
2022-12-31T19:07:57.222Z,8.40
2022-12-31T19:11:00.194Z,7.60
2022-12-31T19:14:04.676Z,8.13
2022-12-31T19:20:09.843Z,7.77
2022-12-31T19:23:17.772Z,6.67
2022-12-31T19:26:22.903Z,7.50
2022-12-31T19:29:29.627Z,8.80
2022-12-31T19:32:32.626Z,9.13
2022-12-31T19:35:35.592Z,8.53
2022-12-31T19:38:38.574Z,7.73
2022-12-31T19:41:43.207Z,7.63
2022-12-31T19:44:47.521Z,7.87
2022-12-31T19:47:50.989Z,11.57
2022-12-31T19:50:55.190Z,8.23
2022-12-31T19:53:58.176Z,9.57
2022-12-31T19:57:01.243Z,8.60
2022-12-31T20:00:06.975Z,10.93
2022-12-31T20:03:12.048Z,13.70
2022-12-31T20:06:15.155Z,15.40
2022-12-31T20:09:18.185Z,21.83
2022-12-31T20:12:21.170Z,9.97
2022-12-31T20:15:25.522Z,9.07
2022-12-31T20:18:28.505Z,11.60
2022-12-31T20:21:31.475Z,11.67
2022-12-31T20:24:34.411Z,12.23
2022-12-31T20:27:38.495Z,11.47
2022-12-31T20:30:42.869Z,11.30
2022-12-31T20:33:45.986Z,9.73
2022-12-31T20:36:49.080Z,9.23
2022-12-31T20:39:52.069Z,11.43
2022-12-31T20:42:55.020Z,9.80
2022-12-31T20:45:59.428Z,10.50
2022-12-31T20:49:04.801Z,11.00
2022-12-31T20:52:07.921Z,10.67
2022-12-31T20:55:13.682Z,8.93
2022-12-31T20:58:16.987Z,8.57
2022-12-31T21:01:21.479Z,7.93
2022-12-31T21:04:24.628Z,9.10
2022-12-31T21:07:27.711Z,12.43
2022-12-31T21:10:30.656Z,10.90
2022-12-31T21:13:32.587Z,10.97
2022-12-31T21:16:37.069Z,11.27
2022-12-31T21:19:40.001Z,14.63
2022-12-31T21:22:42.898Z,14.03
2022-12-31T21:25:46.287Z,11.53
2022-12-31T21:28:49.218Z,10.47
2022-12-31T21:31:53.572Z,9.60
2022-12-31T21:35:31.503Z,9.67
2022-12-31T21:38:19.545Z,9.40
2022-12-31T21:41:39.882Z,16.97
2022-12-31T21:44:42.854Z,13.17
2022-12-31T21:48:04.445Z,10.17
2022-12-31T21:51:09.763Z,9.73
2022-12-31T21:54:32.717Z,10.60
2022-12-31T21:57:59.045Z,16.20
2022-12-31T22:01:16.311Z,17.77
2022-12-31T22:04:59.798Z,8.30
2022-12-31T22:07:43.711Z,11.37
2022-12-31T22:10:52.390Z,10.03
2022-12-31T22:13:56.684Z,11.77
2022-12-31T22:16:59.641Z,10.20
2022-12-31T22:23:26.889Z,13.87
2022-12-31T22:26:30.383Z,10.53
2022-12-31T22:29:33.603Z,8.70
2022-12-31T22:32:36.547Z,11.77
2022-12-31T22:35:40.870Z,10.30
2022-12-31T22:38:44.331Z,9.60
2022-12-31T22:41:47.209Z,10.53
2022-12-31T22:44:50.194Z,20.07
2022-12-31T22:47:54.006Z,20.03
2022-12-31T22:50:58.905Z,23.63
2022-12-31T22:54:01.895Z,23.80
2022-12-31T22:57:04.958Z,18.07
2022-12-31T23:00:13.706Z,34.73
2022-12-31T23:03:16.907Z,75.90
2022-12-31T23:06:21.709Z,80.67
2022-12-31T23:09:42.168Z,98.87
2022-12-31T23:12:45.049Z,88.87
2022-12-31T23:16:05.664Z,91.97
2022-12-31T23:19:27.918Z,102.33
2022-12-31T23:22:49.612Z,109.00
2022-12-31T23:25:53.319Z,84.90
2022-12-31T23:28:56.350Z,64.63
2022-12-31T23:31:59.325Z,72.57
2022-12-31T23:35:09.266Z,66.80
2022-12-31T23:38:16.607Z,61.07
2022-12-31T23:41:21.287Z,58.73
2022-12-31T23:44:24.209Z,58.93
2022-12-31T23:47:27.140Z,58.57
2022-12-31T23:50:30.122Z,46.13
2022-12-31T23:53:34.786Z,41.60
2022-12-31T23:56:37.806Z,47.90
2022-12-31T23:59:40.697Z,38.80
